Aérodrome :
LOGIN :

S'inscrire | Disclaimer

   EN    FR    IT 

 










Légende :    VFR   VFR Marginal   IFR   IFR Intensif   IFR Très Intensif
Visi : 
Plafond : 
>= 8 km
>= 3000ft
5 à 8 km
1000 à 3000 ft
1500m à 5 km
500 à 1000 ft
800 à 1500m
200 à 500 ft
< 800m
< 200 ft
Symboles :   Orages  Brouillard  Fortes neiges  Fortes précipitations  Vent > 20 kt
SIGMETs :   Divers  Orages  Givrage  Turbulence  Onde Orograph.  Cendres Volcan.






- Altitude de l'aérodrome : 50 ft
- Code IATA : EDO


LTFD - Bal?kesir Körfez

DERNIER METAR :
  • 040950Z 06016KT 8000 -SHRA SCT030 BKN090 14/09 Q1013

METARs EXPIRÉS :
  • 040850Z 07019KT 9999 SCT030 BKN090 14/07 Q1013
  • 040750Z 07018KT 9999 SCT030 BKN090 13/07 Q1013 RESHRA

TAF TAF LTFD
Valide du 04 à 09h jusqu'au 04 à 18h UTC


040740Z 0409/0418 07018KT 9999 SCT030 BKN090
TEMPO 0409/0413 -SHRA



MET'MAP, la Météo Aéronautique d'un coup d'oeil ! - Copyright ORBIFLY Décembre 2007 - Disclaimer

ORBIFLY MET'MAP TEAM :

Programmation & Développement : Alexandra Zaïnal
Sur une idée originale de : Baudouin d'Aumeries
Assistance à la programmation : Marc-Olivier Méhu
Soutien technique & logistique : Manuel Goepfert

Contact : metmap@orbifly.com




SOURCES & CREDITS :

   NOAA